createdAt,value
2019-03-02T00:00:05.750Z,13.15
2019-03-02T00:02:33.829Z,12.70
2019-03-02T00:05:01.311Z,11.30
2019-03-02T00:07:30.116Z,8.40
2019-03-02T00:09:58.744Z,10.82
2019-03-02T00:12:28.708Z,7.25
2019-03-02T00:14:55.184Z,8.23
2019-03-02T00:17:23.261Z,6.85
2019-03-02T00:19:51.342Z,11.85
2019-03-02T00:22:20.123Z,12.90
2019-03-02T00:24:48.193Z,16.73
2019-03-02T00:27:17.766Z,15.10
2019-03-02T00:29:45.847Z,14.93
2019-03-02T00:32:12.099Z,17.12
2019-03-02T00:34:40.161Z,15.45
2019-03-02T00:37:08.425Z,14.87
2019-03-02T00:39:36.500Z,16.85
2019-03-02T00:42:05.159Z,13.07
2019-03-02T00:44:35.717Z,12.88
2019-03-02T00:47:01.252Z,12.85
2019-03-02T00:49:29.028Z,18.30
2019-03-02T00:51:57.455Z,13.50
2019-03-02T00:54:25.339Z,12.10
2019-03-02T00:56:53.911Z,9.98
2019-03-02T00:59:21.991Z,10.52
2019-03-02T01:01:50.049Z,9.43
2019-03-02T01:04:18.134Z,14.38
2019-03-02T01:06:48.863Z,13.00
2019-03-02T01:09:15.542Z,10.98
2019-03-02T01:11:43.060Z,11.23
2019-03-02T01:14:11.130Z,12.48
2019-03-02T01:16:39.893Z,14.45
2019-03-02T01:19:07.999Z,14.75
2019-03-02T01:21:37.641Z,18.05
2019-03-02T01:24:04.531Z,12.73
2019-03-02T01:26:31.828Z,12.98
2019-03-02T01:28:59.968Z,17.15
2019-03-02T01:31:28.041Z,14.35
2019-03-02T01:33:56.129Z,15.90
2019-03-02T01:36:24.455Z,15.35
2019-03-02T01:38:53.940Z,21.83
2019-03-02T01:41:20.630Z,17.48
2019-03-02T01:43:48.749Z,15.45
2019-03-02T01:46:16.905Z,21.95
2019-03-02T01:48:45.076Z,18.20
2019-03-02T01:51:13.324Z,14.90
2019-03-02T01:53:41.900Z,18.58
2019-03-02T01:56:09.546Z,12.25
2019-03-02T01:58:37.745Z,14.15
2019-03-02T02:01:05.814Z,16.70
2019-03-02T02:03:33.884Z,16.50
2019-03-02T02:06:03.709Z,16.40
2019-03-02T02:08:30.725Z,16.60
2019-03-02T02:10:59.111Z,16.17
2019-03-02T02:13:26.698Z,14.93
2019-03-02T02:15:55.615Z,17.95
2019-03-02T02:18:27.702Z,17.50
2019-03-02T02:20:54.691Z,22.45
2019-03-02T02:23:22.594Z,17.98
2019-03-02T02:25:51.278Z,18.70
2019-03-02T02:28:20.571Z,18.35
2019-03-02T02:30:48.756Z,19.08
2019-03-02T02:33:16.950Z,16.05
2019-03-02T02:35:45.571Z,15.98
2019-03-02T02:38:16.286Z,18.02
2019-03-02T02:40:41.475Z,19.15
2019-03-02T02:43:09.270Z,18.87
2019-03-02T02:45:37.325Z,15.02
2019-03-02T02:48:04.819Z,20.77
2019-03-02T02:50:33.145Z,16.33
2019-03-02T02:53:06.004Z,18.23
2019-03-02T02:55:29.112Z,19.15
2019-03-02T02:57:57.924Z,18.55
2019-03-02T03:00:25.833Z,18.95
2019-03-02T03:02:53.978Z,16.73
2019-03-02T03:05:22.884Z,17.02
2019-03-02T03:07:53.664Z,17.52
2019-03-02T03:10:31.822Z,20.17
2019-03-02T03:13:03.726Z,19.15
2019-03-02T03:15:35.962Z,21.15
2019-03-02T03:17:58.543Z,20.20
2019-03-02T03:20:26.363Z,18.77
2019-03-02T03:22:54.476Z,24.55
2019-03-02T03:25:22.543Z,17.05
2019-03-02T03:27:51.808Z,18.98
2019-03-02T03:30:34.023Z,16.73
2019-03-02T03:32:54.190Z,20.20
2019-03-02T03:35:17.279Z,19.42
2019-03-02T03:37:50.535Z,19.15
2019-03-02T03:40:11.442Z,18.40
2019-03-02T03:42:39.567Z,23.25
2019-03-02T03:45:09.704Z,17.30
2019-03-02T03:47:38.746Z,18.25
2019-03-02T03:50:09.324Z,22.37
2019-03-02T03:52:34.134Z,18.00
2019-03-02T03:55:02.292Z,22.60
2019-03-02T03:57:30.354Z,24.63
2019-03-02T04:00:00.214Z,17.50
2019-03-02T04:02:31.151Z,20.37
2019-03-02T04:04:57.144Z,18.02
2019-03-02T04:07:25.437Z,19.25
2019-03-02T04:09:53.577Z,22.08
2019-03-02T04:12:24.376Z,23.98
2019-03-02T04:14:50.216Z,29.67
2019-03-02T04:17:18.330Z,25.60
2019-03-02T04:19:46.471Z,25.73
2019-03-02T04:22:14.716Z,23.98
2019-03-02T04:24:43.240Z,25.65
2019-03-02T04:27:15.384Z,29.48
2019-03-02T04:29:49.291Z,26.83
2019-03-02T04:32:07.953Z,25.73
2019-03-02T04:34:36.020Z,27.90
2019-03-02T04:37:04.072Z,25.10
2019-03-02T04:39:32.188Z,31.75
2019-03-02T04:42:00.364Z,26.52
2019-03-02T04:44:29.730Z,23.50
2019-03-02T04:46:56.826Z,24.65
2019-03-02T04:49:25.051Z,29.02
2019-03-02T04:51:52.813Z,29.40
2019-03-02T04:54:20.688Z,30.25
2019-03-02T04:56:49.560Z,27.05
2019-03-02T04:59:18.709Z,27.77
2019-03-02T05:01:46.305Z,29.63
2019-03-02T05:04:13.703Z,27.45
2019-03-02T05:06:41.753Z,25.88
2019-03-02T05:09:13.684Z,27.98
2019-03-02T05:11:40.717Z,25.65
2019-03-02T05:14:07.978Z,34.30
2019-03-02T05:16:37.973Z,29.48
2019-03-02T05:19:06.092Z,31.33
2019-03-02T05:21:34.201Z,26.83
2019-03-02T05:24:03.410Z,26.48
2019-03-02T05:26:30.111Z,26.50
2019-03-02T05:28:57.986Z,27.20
2019-03-02T05:31:26.177Z,29.15
2019-03-02T05:33:53.740Z,32.97
2019-03-02T05:36:23.115Z,36.25
2019-03-02T05:38:50.489Z,30.62
2019-03-02T05:41:18.524Z,29.65
2019-03-02T05:43:47.106Z,28.58
2019-03-02T05:46:15.208Z,36.13
2019-03-02T05:48:44.284Z,28.48
2019-03-02T05:51:11.018Z,33.55
2019-03-02T05:53:39.322Z,32.30
2019-03-02T05:56:07.387Z,31.12
2019-03-02T05:58:35.170Z,29.08
2019-03-02T06:01:03.326Z,27.30
2019-03-02T06:03:31.500Z,27.95
2019-03-02T06:05:59.698Z,32.40
2019-03-02T06:08:27.818Z,31.45
2019-03-02T06:10:58.037Z,30.10
2019-03-02T06:13:24.694Z,26.65
2019-03-02T06:15:52.346Z,32.72
2019-03-02T06:18:21.218Z,30.25
2019-03-02T06:20:49.026Z,35.47
2019-03-02T06:23:17.402Z,34.70
2019-03-02T06:25:45.275Z,33.13
2019-03-02T06:28:13.129Z,32.65
2019-03-02T06:30:44.014Z,32.65
2019-03-02T06:33:09.486Z,31.35
2019-03-02T06:35:37.159Z,35.55
2019-03-02T06:38:05.456Z,35.53
2019-03-02T06:40:33.365Z,37.08
2019-03-02T06:43:01.655Z,39.78
2019-03-02T06:45:29.931Z,38.67
2019-03-02T06:47:57.511Z,34.50
2019-03-02T06:50:25.775Z,36.08
2019-03-02T06:52:54.386Z,37.17
2019-03-02T06:55:24.402Z,37.38
2019-03-02T06:57:51.587Z,38.72
2019-03-02T07:00:19.998Z,40.88
2019-03-02T07:02:48.278Z,36.67
2019-03-02T07:05:16.650Z,38.42
2019-03-02T07:07:45.228Z,38.33
2019-03-02T07:10:17.819Z,38.58
2019-03-02T07:12:45.720Z,36.20
2019-03-02T07:15:13.916Z,36.17
2019-03-02T07:18:16.324Z,38.67
2019-03-02T07:20:46.443Z,40.78
2019-03-02T07:23:14.428Z,42.05
2019-03-02T07:25:44.231Z,42.85
2019-03-02T07:28:10.862Z,44.65
2019-03-02T07:30:40.636Z,38.33
2019-03-02T07:33:06.920Z,39.28
2019-03-02T07:35:35.179Z,41.42
2019-03-02T07:38:03.378Z,39.45
2019-03-02T07:40:31.419Z,37.60
2019-03-02T07:42:59.417Z,36.53
2019-03-02T07:45:31.305Z,39.20
2019-03-02T07:47:55.987Z,40.40
2019-03-02T07:50:25.916Z,42.13
2019-03-02T07:52:53.216Z,45.55
2019-03-02T07:55:22.446Z,38.92
2019-03-02T07:57:48.027Z,39.75
2019-03-02T08:00:17.503Z,39.13
2019-03-02T08:02:45.325Z,41.10
2019-03-02T08:05:14.694Z,42.22
2019-03-02T08:07:45.627Z,39.45
2019-03-02T08:10:13.791Z,36.80
2019-03-02T08:12:41.956Z,43.55
2019-03-02T08:15:11.602Z,42.80
2019-03-02T08:17:39.515Z,44.95
2019-03-02T08:20:09.528Z,42.08
2019-03-02T08:22:37.940Z,36.03
2019-03-02T08:25:06.235Z,43.85
2019-03-02T08:27:35.775Z,44.00
2019-03-02T08:30:03.186Z,39.90
2019-03-02T08:32:31.033Z,37.17
2019-03-02T08:34:59.156Z,45.17
2019-03-02T08:37:29.900Z,40.58
2019-03-02T08:39:55.613Z,43.20
2019-03-02T08:42:24.469Z,48.58
2019-03-02T08:44:53.946Z,47.15
2019-03-02T08:47:20.307Z,41.83
2019-03-02T08:49:48.580Z,43.63
2019-03-02T08:52:16.349Z,43.33
2019-03-02T08:54:45.023Z,40.03
2019-03-02T08:57:12.895Z,48.28
2019-03-02T08:59:41.068Z,42.45
2019-03-02T09:02:09.219Z,47.50
2019-03-02T09:04:37.723Z,46.70
2019-03-02T09:07:07.771Z,39.45
2019-03-02T09:09:33.534Z,44.22
2019-03-02T09:12:01.923Z,43.55
2019-03-02T09:14:29.981Z,44.80
2019-03-02T09:16:57.850Z,42.97
2019-03-02T09:19:25.727Z,44.15
2019-03-02T09:21:55.627Z,46.97
2019-03-02T09:24:22.044Z,45.97
2019-03-02T09:26:50.724Z,44.13
2019-03-02T09:29:18.802Z,43.38
2019-03-02T09:31:46.954Z,48.08
2019-03-02T09:34:15.266Z,44.08
2019-03-02T09:36:43.587Z,46.35
2019-03-02T09:39:12.144Z,45.00
2019-03-02T09:41:40.199Z,41.78
2019-03-02T09:44:07.976Z,39.25
2019-03-02T09:46:36.039Z,43.35
2019-03-02T09:49:07.205Z,39.63
2019-03-02T09:51:33.101Z,43.78
2019-03-02T09:54:01.184Z,41.50
2019-03-02T09:56:29.302Z,46.60
2019-03-02T09:58:57.870Z,44.28
2019-03-02T10:01:25.481Z,46.67
2019-03-02T10:03:53.486Z,41.28
2019-03-02T10:06:21.751Z,45.95
2019-03-02T10:08:49.028Z,42.85
2019-03-02T10:11:17.252Z,38.72
2019-03-02T10:13:45.456Z,41.47
2019-03-02T10:16:13.519Z,38.67
2019-03-02T10:18:41.567Z,37.17
2019-03-02T10:21:09.641Z,35.45
2019-03-02T10:23:38.990Z,37.67
2019-03-02T10:26:07.398Z,35.20
2019-03-02T10:28:35.388Z,41.10
2019-03-02T10:31:06.012Z,42.22
2019-03-02T10:33:32.219Z,39.50
2019-03-02T10:35:59.189Z,37.85
2019-03-02T10:38:27.584Z,37.78
2019-03-02T10:40:55.694Z,43.78
2019-03-02T10:43:23.415Z,48.97
2019-03-02T10:45:51.965Z,47.42
2019-03-02T10:48:19.856Z,52.22
2019-03-02T10:50:47.626Z,47.70
2019-03-02T10:53:15.791Z,43.95
2019-03-02T10:55:44.894Z,41.90
2019-03-02T10:58:12.242Z,38.33
2019-03-02T11:00:40.314Z,36.97
2019-03-02T11:03:08.122Z,32.80
2019-03-02T11:05:52.887Z,41.50
2019-03-02T11:08:45.088Z,41.45
2019-03-02T11:11:32.875Z,35.90
2019-03-02T11:14:33.340Z,31.98
2019-03-02T11:17:24.071Z,35.22
2019-03-02T11:20:29.198Z,36.30
2019-03-02T11:23:24.024Z,30.75
2019-03-02T11:26:14.490Z,35.05
2019-03-02T11:28:54.293Z,37.20
2019-03-02T11:31:45.891Z,32.38
2019-03-02T11:34:27.014Z,31.45
2019-03-02T11:37:17.963Z,32.03
2019-03-02T11:40:05.100Z,30.88
2019-03-02T11:42:50.540Z,32.80
2019-03-02T11:45:27.724Z,31.60
2019-03-02T11:48:16.146Z,24.00
2019-03-02T11:51:08.934Z,31.77
2019-03-02T11:53:43.740Z,29.23
2019-03-02T11:56:39.011Z,28.62
2019-03-02T11:59:13.360Z,23.17
2019-03-02T12:02:15.142Z,29.77
2019-03-02T12:04:53.225Z,22.67
2019-03-02T12:07:41.873Z,22.45
2019-03-02T12:10:31.657Z,22.62
2019-03-02T12:13:21.353Z,23.95
2019-03-02T12:16:09.049Z,25.55
2019-03-02T12:18:57.231Z,24.45
2019-03-02T12:21:44.551Z,19.90
2019-03-02T12:24:46.614Z,24.80
2019-03-02T12:27:33.015Z,21.87
2019-03-02T12:30:27.204Z,27.20
2019-03-02T12:33:01.196Z,24.58
2019-03-02T12:35:53.148Z,22.15
2019-03-02T12:38:40.480Z,22.58
2019-03-02T12:41:26.241Z,27.70
2019-03-02T12:44:21.265Z,21.25
2019-03-02T12:47:09.099Z,20.15
2019-03-02T12:49:54.985Z,23.65
2019-03-02T12:52:34.709Z,22.95
2019-03-02T12:55:21.795Z,22.48
2019-03-02T12:58:10.706Z,23.77
2019-03-02T13:00:44.482Z,21.37
2019-03-02T13:03:30.729Z,22.05
2019-03-02T13:06:08.478Z,22.35
2019-03-02T13:08:45.990Z,20.80
2019-03-02T13:11:31.764Z,21.83
2019-03-02T13:14:38.670Z,27.10
2019-03-02T13:17:26.799Z,24.35
2019-03-02T13:20:10.515Z,28.25
2019-03-02T13:23:15.660Z,22.17
2019-03-02T13:26:01.859Z,21.83
2019-03-02T13:28:43.566Z,21.08
2019-03-02T13:31:39.995Z,17.73
2019-03-02T13:34:32.238Z,23.05
2019-03-02T13:37:06.790Z,28.38
2019-03-02T13:39:56.098Z,23.85
2019-03-02T13:42:36.577Z,20.85
2019-03-02T13:45:14.972Z,24.73
2019-03-02T13:48:01.097Z,20.48
2019-03-02T13:50:47.684Z,19.50
2019-03-02T13:53:28.766Z,18.25
2019-03-02T13:56:12.005Z,20.45
2019-03-02T13:58:51.031Z,21.05
2019-03-02T14:01:34.152Z,18.58
2019-03-02T14:04:38.842Z,20.60
2019-03-02T14:07:14.564Z,19.58
2019-03-02T14:10:02.537Z,23.08
2019-03-02T14:12:54.304Z,24.05
2019-03-02T14:15:39.686Z,19.02
2019-03-02T14:18:18.115Z,20.20
2019-03-02T14:21:07.855Z,18.62
2019-03-02T14:23:44.461Z,17.77
2019-03-02T14:26:40.350Z,18.02
2019-03-02T14:29:30.659Z,14.50
2019-03-02T14:32:02.192Z,19.48
2019-03-02T14:34:50.150Z,16.70
2019-03-02T14:37:49.347Z,17.45
2019-03-02T14:40:38.904Z,20.52
2019-03-02T14:43:25.941Z,16.87
2019-03-02T14:46:19.269Z,14.95
2019-03-02T14:49:03.922Z,14.35
2019-03-02T14:51:41.177Z,17.10
2019-03-02T14:54:31.034Z,14.75
2019-03-02T14:57:16.905Z,13.23
2019-03-02T15:00:09.771Z,13.62
2019-03-02T15:03:06.603Z,16.92
2019-03-02T15:05:53.110Z,20.85
2019-03-02T15:08:42.696Z,15.68
2019-03-02T15:11:41.917Z,11.23
2019-03-02T15:14:24.300Z,13.88
2019-03-02T15:17:09.151Z,13.52
2019-03-02T15:19:57.226Z,10.45
2019-03-02T15:22:50.179Z,9.30
2019-03-02T15:25:26.206Z,7.05
2019-03-02T15:28:08.214Z,6.82
2019-03-02T15:30:45.994Z,10.23
2019-03-02T15:33:23.008Z,8.52
2019-03-02T15:36:16.559Z,7.20
2019-03-02T15:38:54.873Z,6.62
2019-03-02T15:41:51.291Z,10.10
2019-03-02T15:44:28.663Z,8.93
2019-03-02T15:47:06.094Z,9.00
2019-03-02T15:50:13.500Z,7.82
2019-03-02T15:53:07.051Z,8.40
2019-03-02T15:56:00.120Z,7.57
2019-03-02T15:58:47.638Z,8.30
2019-03-02T16:01:29.200Z,10.20
2019-03-02T16:04:21.030Z,7.72
2019-03-02T16:07:23.308Z,7.65
2019-03-02T16:10:05.606Z,10.02
2019-03-02T16:12:40.905Z,7.72
2019-03-02T16:15:24.384Z,9.77
2019-03-02T16:18:05.461Z,8.90
2019-03-02T16:20:55.655Z,8.65
2019-03-02T16:23:38.489Z,7.82
2019-03-02T16:26:24.170Z,10.93
2019-03-02T16:29:05.817Z,8.73
2019-03-02T16:31:56.461Z,9.27
2019-03-02T16:34:44.067Z,9.30
2019-03-02T16:37:24.751Z,10.38
2019-03-02T16:40:06.085Z,8.95
2019-03-02T16:42:57.777Z,10.75
2019-03-02T16:45:35.759Z,10.38
2019-03-02T16:48:25.005Z,10.35
2019-03-02T16:51:13.689Z,12.43
2019-03-02T16:54:16.058Z,10.52
2019-03-02T16:57:13.419Z,11.40
2019-03-02T16:59:47.696Z,10.68
2019-03-02T17:02:37.436Z,10.88
2019-03-02T17:05:28.338Z,11.82
2019-03-02T17:08:17.357Z,13.82
2019-03-02T17:11:01.051Z,14.40
2019-03-02T17:13:47.409Z,14.13
2019-03-02T17:16:26.148Z,13.23
2019-03-02T17:19:00.758Z,14.00
2019-03-02T17:21:57.610Z,13.93
2019-03-02T17:24:31.733Z,15.90
2019-03-02T17:27:27.665Z,16.30
2019-03-02T17:30:17.819Z,15.93
2019-03-02T17:33:04.429Z,16.12
2019-03-02T17:35:50.340Z,19.65
2019-03-02T17:38:51.230Z,20.05
2019-03-02T17:41:31.213Z,18.83
2019-03-02T17:44:18.835Z,20.58
2019-03-02T17:47:22.999Z,21.80
2019-03-02T17:49:58.909Z,21.75
2019-03-02T17:52:50.505Z,19.48
2019-03-02T17:55:36.459Z,19.70
2019-03-02T17:58:22.014Z,17.67
2019-03-02T18:01:01.054Z,18.40
2019-03-02T18:03:39.037Z,20.20
2019-03-02T18:06:31.807Z,18.67
2019-03-02T18:09:06.943Z,18.42
2019-03-02T18:11:53.352Z,17.70
2019-03-02T18:14:26.738Z,18.75
2019-03-02T18:17:19.059Z,17.92
2019-03-02T18:19:44.428Z,19.62
2019-03-02T18:22:12.217Z,17.83
2019-03-02T18:24:39.992Z,20.60
2019-03-02T18:27:08.072Z,16.92
2019-03-02T18:29:35.965Z,18.25
2019-03-02T18:32:04.430Z,17.08
2019-03-02T18:34:33.077Z,23.30
2019-03-02T18:37:01.199Z,18.70
2019-03-02T18:39:30.067Z,20.02
2019-03-02T18:41:58.359Z,18.65
2019-03-02T18:44:27.872Z,20.50
2019-03-02T18:46:55.010Z,22.40
2019-03-02T18:49:42.109Z,21.60
2019-03-02T18:52:34.930Z,21.45
2019-03-02T18:55:03.084Z,20.45
2019-03-02T18:57:31.215Z,19.48
2019-03-02T18:59:59.394Z,23.25
2019-03-02T19:02:29.027Z,22.45
2019-03-02T19:04:55.542Z,20.80
2019-03-02T19:07:24.032Z,18.77
2019-03-02T19:09:51.457Z,21.48
2019-03-02T19:12:19.243Z,18.50
2019-03-02T19:14:48.094Z,16.87
2019-03-02T19:17:16.302Z,17.00
2019-03-02T19:19:44.044Z,13.65
2019-03-02T19:22:12.173Z,12.50
2019-03-02T19:24:40.413Z,13.10
2019-03-02T19:27:07.963Z,16.67
2019-03-02T19:29:36.154Z,16.08
2019-03-02T19:32:04.249Z,18.90
2019-03-02T19:34:32.388Z,20.88
2019-03-02T19:37:00.876Z,20.90
2019-03-02T19:39:29.033Z,21.85
2019-03-02T19:41:57.852Z,21.42
2019-03-02T19:44:26.110Z,22.98
2019-03-02T19:46:54.166Z,18.40
2019-03-02T19:49:22.055Z,17.90
2019-03-02T19:51:50.408Z,15.27
2019-03-02T19:54:18.495Z,14.57
2019-03-02T19:56:47.118Z,10.73
2019-03-02T19:59:16.358Z,14.25
2019-03-02T20:01:50.162Z,9.35
2019-03-02T20:04:18.377Z,12.23
2019-03-02T20:06:46.219Z,9.25
2019-03-02T20:09:14.397Z,10.65
2019-03-02T20:11:42.443Z,8.20
2019-03-02T20:14:10.228Z,5.65
2019-03-02T20:16:38.692Z,8.88
2019-03-02T20:19:06.148Z,11.60
2019-03-02T20:21:34.236Z,8.98
2019-03-02T20:24:02.329Z,13.82
2019-03-02T20:26:30.342Z,10.68
2019-03-02T20:28:58.439Z,11.32
2019-03-02T20:31:26.312Z,8.63
2019-03-02T20:33:54.140Z,10.23
2019-03-02T20:36:22.284Z,13.27
2019-03-02T20:38:50.200Z,11.48
2019-03-02T20:41:18.371Z,11.50
2019-03-02T20:43:47.403Z,12.50
2019-03-02T20:46:15.443Z,12.85
2019-03-02T20:48:43.615Z,16.55
2019-03-02T20:51:12.015Z,10.80
2019-03-02T20:53:40.091Z,7.82
2019-03-02T20:56:08.163Z,10.23
2019-03-02T20:58:36.454Z,9.35
2019-03-02T21:01:05.171Z,8.13
2019-03-02T21:03:33.288Z,13.43
2019-03-02T21:06:01.642Z,14.10
2019-03-02T21:08:29.740Z,20.25
2019-03-02T21:10:58.271Z,14.57
2019-03-02T21:13:26.581Z,13.38
2019-03-02T21:15:54.461Z,14.75
2019-03-02T21:18:22.547Z,15.43
2019-03-02T21:20:50.595Z,15.00
2019-03-02T21:23:18.480Z,21.52
2019-03-02T21:25:46.657Z,11.20
2019-03-02T21:28:14.906Z,12.52
2019-03-02T21:30:42.784Z,17.92
2019-03-02T21:33:12.061Z,19.15
2019-03-02T21:35:38.913Z,8.60
2019-03-02T21:38:06.978Z,9.00
2019-03-02T21:40:35.065Z,10.68
2019-03-02T21:43:03.431Z,15.40
2019-03-02T21:45:32.322Z,15.30
2019-03-02T21:48:00.372Z,22.95
2019-03-02T21:50:29.152Z,18.77
2019-03-02T21:52:57.272Z,11.40
2019-03-02T21:55:25.310Z,13.15
2019-03-02T21:57:53.725Z,10.90
2019-03-02T22:00:22.905Z,14.27
2019-03-02T22:02:50.985Z,15.55
2019-03-02T22:05:19.092Z,15.45
2019-03-02T22:07:47.033Z,18.30
2019-03-02T22:10:19.698Z,18.30
2019-03-02T22:12:48.013Z,16.15
2019-03-02T22:15:22.712Z,20.57
2019-03-02T22:17:51.187Z,14.80
2019-03-02T22:20:19.245Z,12.48
2019-03-02T22:22:47.331Z,11.90
2019-03-02T22:25:15.843Z,13.82
2019-03-02T22:27:43.986Z,15.80
2019-03-02T22:30:13.467Z,17.73
2019-03-02T22:32:42.074Z,13.05
2019-03-02T22:35:09.844Z,18.87
2019-03-02T22:37:37.332Z,13.45
2019-03-02T22:40:05.991Z,14.35
2019-03-02T22:42:33.818Z,15.57
2019-03-02T22:45:01.888Z,13.27
2019-03-02T22:47:30.366Z,18.35
2019-03-02T22:49:58.259Z,13.25
2019-03-02T22:52:26.501Z,18.73
2019-03-02T22:54:54.689Z,16.23
2019-03-02T22:57:22.771Z,13.70
2019-03-02T23:00:04.470Z,12.93
2019-03-02T23:02:31.808Z,16.50
2019-03-02T23:04:59.613Z,12.43
2019-03-02T23:07:27.944Z,17.10
2019-03-02T23:09:55.969Z,15.77
2019-03-02T23:12:24.092Z,11.32
2019-03-02T23:14:52.560Z,15.55
2019-03-02T23:17:20.358Z,12.95
2019-03-02T23:19:48.113Z,12.25
2019-03-02T23:22:15.989Z,9.95
2019-03-02T23:24:44.156Z,12.52
2019-03-02T23:27:12.260Z,12.75
2019-03-02T23:29:40.501Z,18.25
2019-03-02T23:32:08.249Z,17.25
2019-03-02T23:34:37.325Z,11.38
2019-03-02T23:37:04.411Z,8.75
2019-03-02T23:39:32.470Z,13.52
2019-03-02T23:42:00.522Z,12.60
2019-03-02T23:44:28.645Z,13.18
2019-03-02T23:46:56.706Z,9.23
2019-03-02T23:49:25.431Z,11.27
2019-03-02T23:51:53.858Z,11.38
2019-03-02T23:54:21.705Z,14.73
2019-03-02T23:56:49.177Z,9.30
2019-03-02T23:59:17.750Z,9.60
